Time;durP1;ratioP1;P1;durP2;ratioP2;P2;SDS_P1;SDS_P2;PMS_P1;PMS_P2;Temp;Humidity;BMP_temperature;BMP_pressure;BME280_temperature;BME280_humidity;BME280_pressure;Samples;Min_cycle;Max_cycle;Signal;HPM_P1;HPM_P2
2023/12/03 00:01:08;;;;;;;15.63;8.30;;;2.60;67.70;;;;;;2288352;54;20986;-66
2023/12/03 00:03:35;;;;;;;12.98;6.85;;;2.60;67.50;;;;;;2285958;55;20990;-65
2023/12/03 00:06:03;;;;;;;12.88;7.25;;;2.60;67.60;;;;;;2285615;55;20975;-66
2023/12/03 00:08:29;;;;;;;13.80;7.22;;;2.60;67.60;;;;;;2287390;55;21513;-65
2023/12/03 00:11:00;;;;;;;14.10;6.93;;;2.60;67.50;;;;;;2490742;54;21767;-66
2023/12/03 00:13:27;;;;;;;12.85;6.72;;;2.60;67.50;;;;;;2521444;54;21460;-65
2023/12/03 00:15:54;;;;;;;17.45;8.48;;;2.60;67.50;;;;;;2519339;54;21590;-65
2023/12/03 00:18:20;;;;;;;15.55;7.40;;;2.60;67.50;;;;;;2517083;54;21040;-66
2023/12/03 00:20:48;;;;;;;16.40;8.02;;;2.60;67.50;;;;;;2282945;54;21047;-66
2023/12/03 00:23:14;;;;;;;13.35;6.68;;;2.60;67.50;;;;;;2287091;55;20995;-66
2023/12/03 00:25:40;;;;;;;13.45;7.28;;;2.60;67.60;;;;;;2286384;55;20962;-66
2023/12/03 00:28:07;;;;;;;12.15;6.20;;;2.60;67.50;;;;;;2287025;55;21047;-65
2023/12/03 00:30:33;;;;;;;14.57;7.47;;;2.60;67.50;;;;;;2286726;55;21252;-65
2023/12/03 00:32:59;;;;;;;15.82;7.20;;;2.60;67.60;;;;;;2288447;55;20982;-66
2023/12/03 00:35:26;;;;;;;16.23;8.02;;;2.60;67.60;;;;;;2521334;54;20940;-65
2023/12/03 00:37:53;;;;;;;16.20;8.25;;;2.60;67.60;;;;;;2521850;54;21318;-66
2023/12/03 00:40:19;;;;;;;18.80;7.78;;;2.60;67.60;;;;;;2287514;56;21042;-66
2023/12/03 00:42:45;;;;;;;15.13;7.90;;;2.60;67.60;;;;;;2287160;55;20999;-66
2023/12/03 00:45:12;;;;;;;15.80;8.45;;;2.70;67.70;;;;;;2287292;55;21147;-65
2023/12/03 00:51:02;;;;;;;11.93;6.05;;;2.80;67.70;;;;;;2287157;55;21090;-66
2023/12/03 00:53:29;;;;;;;13.35;7.18;;;2.70;67.70;;;;;;2286117;55;20959;-66
2023/12/03 00:55:55;;;;;;;12.37;5.82;;;2.70;67.70;;;;;;2521999;54;21496;-65
2023/12/03 00:58:21;;;;;;;14.00;6.75;;;2.70;67.60;;;;;;2288063;55;21035;-66
2023/12/03 01:00:48;;;;;;;14.65;7.00;;;2.70;67.60;;;;;;2290604;55;20956;-66
2023/12/03 01:03:14;;;;;;;12.55;6.70;;;2.70;67.60;;;;;;2283202;55;21480;-65
2023/12/03 01:05:41;;;;;;;11.12;6.22;;;2.70;67.60;;;;;;2287347;55;20939;-65
2023/12/03 01:08:10;;;;;;;12.85;6.30;;;2.70;67.70;;;;;;2522094;54;20951;-66
2023/12/03 01:13:48;;;;;;;13.48;6.22;;;2.70;67.60;;;;;;2287404;55;21019;-66
2023/12/03 01:16:15;;;;;;;11.35;5.65;;;2.70;67.70;;;;;;2286528;55;21606;-66
2023/12/03 01:18:41;;;;;;;13.10;6.65;;;2.70;67.80;;;;;;2282795;55;20983;-66
2023/12/03 01:21:08;;;;;;;13.80;6.22;;;2.70;67.70;;;;;;2287035;58;21130;-66
2023/12/03 01:23:36;;;;;;;13.98;6.32;;;2.70;67.70;;;;;;2521279;54;21026;-66
2023/12/03 01:26:02;;;;;;;14.68;6.75;;;2.70;67.70;;;;;;2286799;55;21725;-65
2023/12/03 01:28:28;;;;;;;12.35;6.07;;;2.70;67.70;;;;;;2287095;55;21532;-67
2023/12/03 01:30:55;;;;;;;13.18;6.70;;;2.70;67.70;;;;;;2287890;55;20971;-65
2023/12/03 01:33:21;;;;;;;13.88;7.03;;;2.70;67.70;;;;;;2287412;55;21775;-65
2023/12/03 01:35:47;;;;;;;13.18;7.18;;;2.70;67.70;;;;;;2285822;55;21369;-67
2023/12/03 01:38:15;;;;;;;13.30;6.78;;;2.70;67.70;;;;;;2287484;55;21015;-66
2023/12/03 01:40:51;;;;;;;12.55;6.70;;;2.70;67.70;;;;;;2287011;55;20979;-66
2023/12/03 01:43:17;;;;;;;13.68;6.85;;;2.70;67.70;;;;;;2287590;55;20963;-65
2023/12/03 01:45:46;;;;;;;12.07;6.32;;;2.70;67.70;;;;;;2287105;55;20947;-66
2023/12/03 01:48:18;;;;;;;14.38;6.82;;;2.70;67.70;;;;;;2287501;55;21779;-67
2023/12/03 01:50:45;;;;;;;13.77;6.45;;;2.70;67.70;;;;;;2287799;55;21642;-66
2023/12/03 01:53:14;;;;;;;11.88;5.90;;;2.70;67.70;;;;;;2521787;54;21003;-67
2023/12/03 01:55:40;;;;;;;13.60;6.62;;;2.70;67.70;;;;;;2287771;55;21015;-67
2023/12/03 01:58:07;;;;;;;13.25;6.55;;;2.70;67.70;;;;;;2521810;54;20968;-65
2023/12/03 02:00:33;;;;;;;14.15;6.80;;;2.70;67.80;;;;;;2286709;55;20944;-67
2023/12/03 02:03:01;;;;;;;14.38;7.00;;;2.70;67.90;;;;;;2287314;55;21485;-67
2023/12/03 02:05:27;;;;;;;14.00;7.03;;;2.70;68.00;;;;;;2287459;55;21019;-67
2023/12/03 02:07:53;;;;;;;11.90;6.30;;;2.70;68.00;;;;;;2287207;55;21923;-66
2023/12/03 02:10:20;;;;;;;11.05;5.62;;;2.70;67.90;;;;;;2287088;55;20987;-67
2023/12/03 02:12:47;;;;;;;11.85;5.25;;;2.70;67.90;;;;;;2287515;55;21035;-66
2023/12/03 02:15:14;;;;;;;14.35;6.60;;;2.70;67.70;;;;;;2285767;55;20946;-66
2023/12/03 02:17:40;;;;;;;12.00;6.32;;;2.70;67.60;;;;;;2287643;55;21005;-66
2023/12/03 02:20:07;;;;;;;10.05;5.25;;;2.70;67.60;;;;;;2517766;54;20968;-66
2023/12/03 02:22:38;;;;;;;13.30;6.75;;;2.70;67.40;;;;;;2286616;55;20983;-65
2023/12/03 02:25:07;;;;;;;11.80;6.30;;;2.70;67.30;;;;;;2286939;55;21047;-66
2023/12/03 02:27:33;;;;;;;13.60;6.93;;;2.60;67.20;;;;;;2287778;54;21575;-66
2023/12/03 02:30:00;;;;;;;12.68;6.78;;;2.60;67.20;;;;;;2521826;54;20963;-65
2023/12/03 02:32:26;;;;;;;14.98;6.97;;;2.60;67.20;;;;;;2287643;55;20971;-66
2023/12/03 02:34:52;;;;;;;14.77;6.60;;;2.60;67.10;;;;;;2287154;55;21035;-67
2023/12/03 02:37:19;;;;;;;13.80;6.60;;;2.60;67.10;;;;;;2287401;55;21628;-67
2023/12/03 02:39:45;;;;;;;15.18;6.87;;;2.50;67.00;;;;;;2521540;54;20952;-66
2023/12/03 02:42:11;;;;;;;13.05;6.75;;;2.50;67.00;;;;;;2288739;55;20975;-66
2023/12/03 02:44:46;;;;;;;12.93;7.28;;;2.50;67.00;;;;;;2287336;55;21453;-66
2023/12/03 02:47:13;;;;;;;16.33;7.62;;;2.50;67.00;;;;;;2286625;55;20979;-65
2023/12/03 02:49:39;;;;;;;13.52;6.25;;;2.40;66.90;;;;;;2289341;55;20954;-66
2023/12/03 02:52:06;;;;;;;13.48;6.22;;;2.40;66.90;;;;;;2283994;54;21559;-66
2023/12/03 02:54:32;;;;;;;13.13;6.37;;;2.40;66.80;;;;;;2287874;55;21007;-66
2023/12/03 02:56:58;;;;;;;12.02;6.00;;;2.30;66.80;;;;;;2287495;55;21015;-66
2023/12/03 02:59:25;;;;;;;11.95;6.18;;;2.30;66.80;;;;;;2287818;55;20968;-67
2023/12/03 03:01:51;;;;;;;13.60;6.35;;;2.30;66.90;;;;;;2286451;56;21011;-67
2023/12/03 03:04:19;;;;;;;11.93;6.07;;;2.20;66.80;;;;;;2522079;54;21015;-66
2023/12/03 03:06:45;;;;;;;11.57;5.78;;;2.20;66.90;;;;;;2522251;54;20996;-65
2023/12/03 03:09:14;;;;;;;11.68;5.95;;;2.20;66.90;;;;;;2287216;55;20959;-66
2023/12/03 03:11:41;;;;;;;12.70;5.72;;;2.20;66.90;;;;;;2519701;54;21022;-67
2023/12/03 03:14:08;;;;;;;12.10;6.15;;;2.20;67.00;;;;;;2518256;54;20970;-66
2023/12/03 03:16:35;;;;;;;12.13;5.97;;;2.10;66.90;;;;;;2287443;55;21026;-66
2023/12/03 03:19:01;;;;;;;11.73;6.00;;;2.10;67.00;;;;;;2287302;55;21015;-66
2023/12/03 03:21:28;;;;;;;11.40;5.75;;;2.10;67.00;;;;;;2287426;55;21292;-67
2023/12/03 03:23:55;;;;;;;14.00;6.20;;;2.10;67.00;;;;;;2287174;55;21095;-65
2023/12/03 03:26:22;;;;;;;11.05;5.43;;;2.10;67.10;;;;;;2521107;54;21019;-67
2023/12/03 03:28:49;;;;;;;11.95;6.18;;;2.10;67.20;;;;;;2287058;55;21015;-66
2023/12/03 03:31:15;;;;;;;10.93;5.62;;;2.00;67.00;;;;;;2518589;54;20980;-65
2023/12/03 03:33:41;;;;;;;12.48;6.30;;;2.00;67.00;;;;;;2518563;54;21063;-66
2023/12/03 03:36:08;;;;;;;12.00;6.10;;;2.00;67.00;;;;;;2287471;55;20983;-66
2023/12/03 03:38:36;;;;;;;14.50;6.47;;;2.00;67.00;;;;;;2288133;55;21035;-67
2023/12/03 03:41:03;;;;;;;12.85;6.20;;;1.90;66.90;;;;;;2287288;55;21670;-66
2023/12/03 03:43:30;;;;;;;15.65;7.35;;;2.00;67.00;;;;;;2287341;55;21039;-67
2023/12/03 03:45:57;;;;;;;14.18;6.62;;;2.00;67.00;;;;;;2290247;55;21024;-66
2023/12/03 03:48:24;;;;;;;14.20;6.93;;;2.00;67.00;;;;;;2287810;55;20978;-66
2023/12/03 03:50:50;;;;;;;14.32;6.40;;;1.90;66.80;;;;;;2285405;55;21646;-66
2023/12/03 03:53:16;;;;;;;12.18;6.32;;;1.90;66.70;;;;;;2290380;55;21007;-66
2023/12/03 03:55:43;;;;;;;11.65;5.87;;;1.90;66.60;;;;;;2288073;54;21395;-66
2023/12/03 03:58:09;;;;;;;12.20;5.45;;;1.90;66.50;;;;;;2286326;55;21912;-66
2023/12/03 04:00:35;;;;;;;13.70;6.65;;;1.80;66.40;;;;;;2287936;55;21002;-66
2023/12/03 04:03:02;;;;;;;9.93;5.03;;;1.80;66.30;;;;;;2287697;55;21016;-66
2023/12/03 04:05:29;;;;;;;10.48;5.70;;;1.80;66.30;;;;;;2288240;56;21007;-66
2023/12/03 04:07:55;;;;;;;10.20;5.37;;;1.80;66.30;;;;;;2287672;55;21000;-66
2023/12/03 04:10:21;;;;;;;10.48;4.85;;;1.70;66.20;;;;;;2522240;54;20968;-67
2023/12/03 04:12:48;;;;;;;10.32;4.90;;;1.70;66.20;;;;;;2287332;55;20997;-66
2023/12/03 04:15:14;;;;;;;11.27;5.68;;;1.70;66.10;;;;;;2287092;55;21551;-67
2023/12/03 04:17:40;;;;;;;11.73;5.40;;;1.60;65.90;;;;;;2287962;55;20979;-66
2023/12/03 04:20:07;;;;;;;10.55;5.20;;;1.60;65.90;;;;;;2286611;55;20983;-66
2023/12/03 04:22:34;;;;;;;11.00;5.12;;;1.50;66.30;;;;;;2287542;55;21197;-66
2023/12/03 04:25:02;;;;;;;10.75;5.43;;;1.50;65.50;;;;;;2518522;54;21005;-66
2023/12/03 04:27:29;;;;;;;10.32;5.20;;;1.40;65.40;;;;;;2285721;55;20955;-65
2023/12/03 04:29:56;;;;;;;10.85;5.15;;;1.40;65.40;;;;;;2287354;55;21509;-67
2023/12/03 04:32:22;;;;;;;11.88;5.82;;;1.40;65.50;;;;;;2287809;55;21063;-66
2023/12/03 04:34:49;;;;;;;11.30;6.00;;;1.30;65.50;;;;;;2521697;54;20947;-67
2023/12/03 04:37:15;;;;;;;11.15;5.25;;;1.20;65.50;;;;;;2287741;55;21038;-65
2023/12/03 04:39:45;;;;;;;14.85;6.62;;;1.20;65.50;;;;;;2522020;54;20983;-65
2023/12/03 04:42:11;;;;;;;11.77;5.37;;;1.20;65.60;;;;;;2520742;54;21576;-67
2023/12/03 04:44:37;;;;;;;10.98;5.40;;;1.10;65.60;;;;;;2287601;55;20955;-66
2023/12/03 04:47:04;;;;;;;11.38;5.32;;;1.10;65.60;;;;;;2287092;55;20964;-66
2023/12/03 04:49:30;;;;;;;12.13;5.35;;;1.00;65.60;;;;;;2520924;54;21007;-66
2023/12/03 04:51:56;;;;;;;15.85;6.15;;;1.00;65.60;;;;;;2287419;55;21299;-65
2023/12/03 04:54:23;;;;;;;13.73;6.28;;;1.00;65.60;;;;;;2521292;54;20964;-66
2023/12/03 04:56:52;;;;;;;11.12;5.12;;;1.00;65.60;;;;;;2521645;54;21004;-65
2023/12/03 04:59:18;;;;;;;11.68;5.68;;;0.90;65.50;;;;;;2518673;54;21829;-66
2023/12/03 05:01:45;;;;;;;10.52;5.00;;;0.90;65.60;;;;;;2286206;54;21019;-67
2023/12/03 05:04:11;;;;;;;12.00;5.45;;;0.80;65.60;;;;;;2286409;55;20975;-66
2023/12/03 05:06:38;;;;;;;12.43;5.80;;;0.80;65.60;;;;;;2287860;55;20932;-66
2023/12/03 05:09:05;;;;;;;9.70;4.93;;;0.80;65.60;;;;;;2521713;54;21563;-65
2023/12/03 05:11:35;;;;;;;13.40;6.43;;;0.80;65.60;;;;;;2287803;55;21031;-66
2023/12/03 05:14:01;;;;;;;12.52;5.68;;;0.70;65.60;;;;;;2287792;55;21031;-67
2023/12/03 05:16:27;;;;;;;11.90;5.28;;;0.70;65.50;;;;;;2522334;54;20986;-66
2023/12/03 05:18:54;;;;;;;13.88;5.80;;;0.70;65.40;;;;;;2287274;55;20955;-66
2023/12/03 05:21:20;;;;;;;11.45;5.35;;;0.60;65.20;;;;;;2287969;55;20951;-66
2023/12/03 05:23:46;;;;;;;9.95;4.45;;;0.60;65.20;;;;;;2287691;55;21480;-66
2023/12/03 05:26:13;;;;;;;13.48;5.57;;;0.60;65.20;;;;;;2521682;54;21890;-65
2023/12/03 05:28:39;;;;;;;12.75;5.05;;;0.50;65.10;;;;;;2288417;55;21040;-66
2023/12/03 05:31:06;;;;;;;10.35;5.05;;;0.50;65.20;;;;;;2521977;54;21018;-66
2023/12/03 05:33:33;;;;;;;11.68;5.57;;;0.40;65.20;;;;;;2522690;54;21056;-66
2023/12/03 05:35:59;;;;;;;9.95;5.05;;;0.40;65.30;;;;;;2522192;54;20979;-65
2023/12/03 05:38:25;;;;;;;10.95;5.55;;;0.30;65.20;;;;;;2287829;55;21405;-65
2023/12/03 05:40:54;;;;;;;9.95;4.85;;;0.30;65.20;;;;;;2522175;54;21026;-66
2023/12/03 05:43:21;;;;;;;10.10;4.97;;;0.30;65.10;;;;;;2287645;55;20995;-66
2023/12/03 05:45:48;;;;;;;10.20;5.28;;;0.30;65.90;;;;;;2287651;55;20954;-65
2023/12/03 05:48:14;;;;;;;10.45;4.93;;;0.20;65.20;;;;;;2521685;54;21902;-66
2023/12/03 05:50:41;;;;;;;8.82;4.28;;;0.20;65.20;;;;;;2522943;54;21047;-66
2023/12/03 05:53:08;;;;;;;9.65;4.85;;;0.20;65.30;;;;;;2287266;55;21576;-65
2023/12/03 05:56:16;;;;;;;10.02;4.90;;;0.10;65.20;;;;;;2516313;54;20974;-66
2023/12/03 05:58:42;;;;;;;10.65;5.05;;;0.10;65.30;;;;;;2288166;55;21276;-66
2023/12/03 06:01:08;;;;;;;14.65;6.00;;;0.10;65.30;;;;;;2287388;55;21172;-66
2023/12/03 06:03:38;;;;;;;13.40;5.75;;;0.00;65.30;;;;;;2288322;55;21774;-66
2023/12/03 06:06:05;;;;;;;16.30;6.22;;;0.00;65.40;;;;;;2521577;54;20983;-65
2023/12/03 06:08:31;;;;;;;15.43;6.37;;;0.00;65.40;;;;;;2289477;55;20978;-66
2023/12/03 06:11:00;;;;;;;11.35;5.47;;;0.00;65.50;;;;;;2283523;55;20975;-66
2023/12/03 06:13:27;;;;;;;15.80;6.03;;;-0.10;65.40;;;;;;2521926;54;21077;-66
2023/12/03 06:15:54;;;;;;;12.40;6.12;;;-0.10;65.50;;;;;;2288106;55;20962;-66
2023/12/03 06:18:21;;;;;;;14.50;6.07;;;-0.10;65.60;;;;;;2287329;55;21827;-66
2023/12/03 06:20:47;;;;;;;11.10;5.45;;;-0.10;65.70;;;;;;2287599;55;21123;-65
2023/12/03 06:23:13;;;;;;;11.52;6.28;;;-0.10;65.80;;;;;;2287466;55;20963;-65
2023/12/03 06:25:41;;;;;;;16.70;6.78;;;-0.10;65.90;;;;;;2522659;54;21847;-67
2023/12/03 06:28:16;;;;;;;13.32;6.35;;;-0.10;65.90;;;;;;2288755;55;21100;-66
2023/12/03 06:30:43;;;;;;;13.10;6.12;;;-0.10;65.90;;;;;;2287355;55;20976;-67
2023/12/03 06:33:10;;;;;;;12.90;6.10;;;-0.10;66.00;;;;;;2521407;54;21086;-65
2023/12/03 06:35:37;;;;;;;13.80;6.53;;;-0.10;66.10;;;;;;2288352;55;21172;-65
2023/12/03 06:38:03;;;;;;;11.77;5.93;;;-0.10;66.10;;;;;;2287424;55;21425;-65
2023/12/03 06:40:33;;;;;;;12.90;5.82;;;-0.20;66.00;;;;;;2522096;54;20959;-66
2023/12/03 06:42:59;;;;;;;14.52;6.65;;;-0.20;66.10;;;;;;2287510;55;21079;-66
2023/12/03 06:45:26;;;;;;;11.00;5.57;;;-0.10;66.10;;;;;;2521173;54;21042;-66
2023/12/03 06:47:52;;;;;;;12.80;5.37;;;-0.10;65.90;;;;;;2521644;54;20959;-66
2023/12/03 06:50:19;;;;;;;13.75;6.80;;;-0.20;65.70;;;;;;2286094;55;21058;-66
2023/12/03 06:52:45;;;;;;;14.65;7.57;;;-0.20;65.70;;;;;;2287726;55;21445;-65
2023/12/03 06:55:12;;;;;;;13.62;6.90;;;-0.20;65.70;;;;;;2286259;54;20991;-66
2023/12/03 06:57:39;;;;;;;16.35;7.75;;;-0.20;65.80;;;;;;2519937;54;21003;-65
2023/12/03 07:00:09;;;;;;;14.52;7.20;;;-0.20;65.90;;;;;;2287926;55;20955;-66
2023/12/03 07:02:36;;;;;;;15.60;7.22;;;-0.20;66.00;;;;;;2516492;54;20954;-66
2023/12/03 07:05:05;;;;;;;11.30;6.57;;;-0.20;66.10;;;;;;2285541;55;21027;-66
2023/12/03 07:07:32;;;;;;;16.45;7.70;;;-0.30;65.90;;;;;;2287485;55;21047;-66
2023/12/03 07:09:58;;;;;;;13.05;6.50;;;-0.30;65.90;;;;;;2287859;55;20987;-66
2023/12/03 07:12:27;;;;;;;14.85;7.45;;;-0.20;66.10;;;;;;2520552;54;21067;-65
2023/12/03 07:14:54;;;;;;;16.30;7.78;;;-0.30;66.00;;;;;;2288067;55;20979;-66
2023/12/03 07:17:21;;;;;;;16.58;7.72;;;-0.30;66.00;;;;;;2520504;54;21889;-65
2023/12/03 07:19:49;;;;;;;16.83;7.40;;;-0.30;66.70;;;;;;2520681;54;20990;-65
2023/12/03 07:22:15;;;;;;;14.90;7.20;;;-0.30;66.00;;;;;;2283326;54;20964;-65
2023/12/03 07:24:42;;;;;;;15.13;7.28;;;-0.30;65.90;;;;;;2287774;55;20972;-66
2023/12/03 07:27:08;;;;;;;15.65;7.50;;;-0.30;65.90;;;;;;2287034;55;21409;-66
2023/12/03 07:29:37;;;;;;;18.55;8.20;;;-0.30;65.90;;;;;;2287138;55;20956;-66
2023/12/03 07:32:04;;;;;;;14.30;7.00;;;-0.30;65.90;;;;;;2287253;55;21086;-65
2023/12/03 07:34:31;;;;;;;16.85;7.60;;;-0.30;65.90;;;;;;2521289;54;21786;-66
2023/12/03 07:36:58;;;;;;;17.60;7.62;;;-0.30;65.90;;;;;;2288732;54;20995;-65
2023/12/03 07:39:25;;;;;;;12.98;6.30;;;-0.30;65.90;;;;;;2286302;55;21047;-66
2023/12/03 07:41:51;;;;;;;14.57;7.28;;;-0.40;65.90;;;;;;2522348;54;20979;-66
2023/12/03 07:44:18;;;;;;;13.10;6.87;;;-0.30;66.00;;;;;;2286924;55;20967;-65
2023/12/03 07:46:44;;;;;;;15.57;7.22;;;-0.40;65.90;;;;;;2287679;55;21023;-65
2023/12/03 07:49:16;;;;;;;16.33;7.40;;;-0.30;66.00;;;;;;2287459;55;20986;-65
2023/12/03 07:51:47;;;;;;;15.50;7.65;;;-0.40;66.10;;;;;;2286985;55;21019;-66
2023/12/03 07:54:13;;;;;;;13.07;6.62;;;-0.40;65.80;;;;;;2521550;54;20968;-66
2023/12/03 07:56:40;;;;;;;15.55;7.57;;;-0.40;65.80;;;;;;2288983;55;21012;-65
2023/12/03 07:59:07;;;;;;;13.10;7.07;;;-0.40;65.90;;;;;;2519980;54;20987;-66
2023/12/03 08:01:34;;;;;;;16.23;7.37;;;-0.40;65.90;;;;;;2287789;55;20987;-66
2023/12/03 08:04:00;;;;;;;16.52;7.00;;;-0.40;65.90;;;;;;2288412;55;21338;-66
2023/12/03 08:06:27;;;;;;;15.13;6.72;;;-0.40;65.90;;;;;;2286972;55;20947;-66
2023/12/03 08:08:53;;;;;;;15.10;7.78;;;-0.40;66.00;;;;;;2288506;55;21067;-65
2023/12/03 08:11:20;;;;;;;14.07;7.45;;;-0.40;66.00;;;;;;2521257;54;21051;-66
2023/12/03 08:13:47;;;;;;;16.25;7.93;;;-0.40;66.10;;;;;;2522511;54;21043;-66
2023/12/03 08:16:13;;;;;;;15.40;7.12;;;-0.40;66.20;;;;;;2521066;54;21003;-65
2023/12/03 08:18:40;;;;;;;15.15;7.85;;;-0.40;66.30;;;;;;2288019;55;21476;-65
2023/12/03 08:21:06;;;;;;;16.02;8.07;;;-0.40;66.30;;;;;;2286430;55;20963;-66
2023/12/03 08:23:34;;;;;;;15.70;7.80;;;-0.40;66.40;;;;;;2286297;55;20947;-65
2023/12/03 08:26:02;;;;;;;16.73;7.53;;;-0.40;66.60;;;;;;2286888;54;21015;-67
2023/12/03 08:28:29;;;;;;;15.00;7.25;;;-0.40;66.70;;;;;;2286674;54;21328;-66
2023/12/03 08:30:58;;;;;;;14.00;7.37;;;-0.30;67.00;;;;;;2289808;55;21392;-65
2023/12/03 08:33:27;;;;;;;16.40;7.93;;;-0.30;67.30;;;;;;2283245;55;21070;-67
2023/12/03 08:35:53;;;;;;;16.90;7.60;;;-0.30;67.50;;;;;;2287881;55;21033;-66
2023/12/03 08:38:20;;;;;;;15.35;7.00;;;-0.20;67.70;;;;;;2520693;54;21008;-65
2023/12/03 08:40:46;;;;;;;13.30;6.57;;;-0.20;67.80;;;;;;2287710;55;20967;-66
2023/12/03 08:43:12;;;;;;;16.15;7.85;;;-0.10;68.00;;;;;;2286461;55;21026;-66
2023/12/03 08:45:39;;;;;;;15.60;7.40;;;-0.10;68.10;;;;;;2287236;55;20975;-67
2023/12/03 08:48:05;;;;;;;14.60;6.97;;;0.00;68.20;;;;;;2287301;55;20978;-66
2023/12/03 08:50:31;;;;;;;13.30;6.75;;;0.00;68.30;;;;;;2287355;55;20964;-66
2023/12/03 08:52:58;;;;;;;17.75;8.18;;;0.10;68.40;;;;;;2286676;56;20971;-66
2023/12/03 08:55:24;;;;;;;14.25;6.80;;;0.10;68.50;;;;;;2286826;55;20955;-65
2023/12/03 08:57:51;;;;;;;15.82;7.18;;;0.20;68.70;;;;;;2288069;55;20993;-66
2023/12/03 09:00:18;;;;;;;14.38;7.28;;;0.20;68.70;;;;;;2285176;55;21798;-66
2023/12/03 09:02:44;;;;;;;14.68;6.93;;;0.30;68.90;;;;;;2286741;55;21011;-65
2023/12/03 09:05:12;;;;;;;15.13;7.55;;;0.40;69.00;;;;;;2520926;54;21425;-66
2023/12/03 09:07:38;;;;;;;17.00;7.37;;;0.40;69.00;;;;;;2288466;55;20985;-66
2023/12/03 09:10:06;;;;;;;16.50;7.50;;;0.50;69.20;;;;;;2286585;55;21450;-66
2023/12/03 09:12:32;;;;;;;18.73;7.87;;;0.60;69.30;;;;;;2288616;55;22027;-65
2023/12/03 09:15:03;;;;;;;16.37;8.15;;;0.70;69.40;;;;;;2519092;54;20983;-65
2023/12/03 09:17:29;;;;;;;15.35;7.53;;;0.70;69.40;;;;;;2287003;55;21437;-65
2023/12/03 09:19:57;;;;;;;16.12;7.47;;;0.80;69.40;;;;;;2521973;54;21040;-65
2023/12/03 09:22:23;;;;;;;17.33;7.65;;;0.90;69.50;;;;;;2286967;56;21275;-66
2023/12/03 09:24:51;;;;;;;15.07;7.40;;;0.90;69.50;;;;;;2290158;55;21271;-65
2023/12/03 09:27:17;;;;;;;16.30;8.07;;;1.00;69.60;;;;;;2285679;55;20950;-65
2023/12/03 09:29:44;;;;;;;15.05;7.45;;;1.10;69.60;;;;;;2288197;55;21035;-65
2023/12/03 09:32:10;;;;;;;15.43;7.28;;;1.10;69.60;;;;;;2521980;54;20991;-65
2023/12/03 09:34:37;;;;;;;16.12;7.45;;;1.20;69.70;;;;;;2290361;55;20983;-65
2023/12/03 09:37:03;;;;;;;17.12;8.32;;;1.20;69.60;;;;;;2283745;54;20968;-65
2023/12/03 09:39:33;;;;;;;16.83;8.07;;;1.30;69.70;;;;;;2285823;55;21056;-65
2023/12/03 09:42:00;;;;;;;16.77;8.27;;;1.40;69.70;;;;;;2522205;54;21741;-65
2023/12/03 09:44:48;;;;;;;16.00;7.78;;;1.40;69.70;;;;;;2286704;55;20963;-66
2023/12/03 09:47:15;;;;;;;15.60;7.57;;;1.50;69.60;;;;;;2288228;55;21027;-66
2023/12/03 09:49:42;;;;;;;15.70;8.05;;;1.60;69.80;;;;;;2287487;55;21844;-65
2023/12/03 09:52:09;;;;;;;15.80;7.75;;;1.60;69.70;;;;;;2522208;54;20967;-66
2023/12/03 09:54:35;;;;;;;16.60;8.30;;;1.70;69.70;;;;;;2521035;54;21011;-66
2023/12/03 09:57:01;;;;;;;18.65;8.65;;;1.70;69.70;;;;;;2290552;55;21019;-66
2023/12/03 09:59:28;;;;;;;14.50;7.32;;;1.80;69.80;;;;;;2286814;55;20971;-66
2023/12/03 10:01:55;;;;;;;16.87;8.32;;;1.90;69.90;;;;;;2287776;55;20967;-66
2023/12/03 10:04:21;;;;;;;17.70;8.20;;;1.90;69.80;;;;;;2521881;54;21004;-65
2023/12/03 10:06:49;;;;;;;15.90;7.75;;;2.00;69.80;;;;;;2288114;54;21780;-66
2023/12/03 10:09:15;;;;;;;17.62;8.07;;;2.10;69.80;;;;;;2286433;55;21002;-65
2023/12/03 10:11:51;;;;;;;16.58;8.05;;;2.10;69.80;;;;;;2287955;55;21473;-66
2023/12/03 10:14:17;;;;;;;18.05;8.27;;;2.10;69.80;;;;;;2522172;54;21047;-65
2023/12/03 10:16:50;;;;;;;15.90;8.02;;;2.20;69.90;;;;;;2522425;54;21007;-66
2023/12/03 10:19:27;;;;;;;15.00;7.25;;;2.30;69.80;;;;;;2287816;55;21836;-66
2023/12/03 10:21:55;;;;;;;17.95;8.13;;;2.30;69.70;;;;;;2518100;54;20979;-66
2023/12/03 10:24:21;;;;;;;14.68;7.43;;;2.40;69.80;;;;;;2285856;55;21493;-66
2023/12/03 10:26:59;;;;;;;15.82;8.15;;;2.50;69.80;;;;;;2288196;55;20953;-66
2023/12/03 10:29:26;;;;;;;14.60;7.10;;;2.50;69.60;;;;;;2520403;54;20983;-66
2023/12/03 10:31:56;;;;;;;13.82;6.85;;;2.50;69.60;;;;;;2521348;54;20983;-66
2023/12/03 10:34:24;;;;;;;16.20;7.57;;;2.60;69.60;;;;;;2520098;54;20963;-66
2023/12/03 10:36:50;;;;;;;12.23;6.72;;;2.70;69.60;;;;;;2521602;54;21042;-66
2023/12/03 10:39:18;;;;;;;20.12;9.57;;;2.70;69.50;;;;;;2517274;54;20967;-65
2023/12/03 10:41:51;;;;;;;22.60;12.20;;;2.70;69.50;;;;;;2516973;54;20930;-65
2023/12/03 10:44:19;;;;;;;18.92;9.55;;;2.70;69.40;;;;;;2287778;55;21191;-66
2023/12/03 10:46:45;;;;;;;15.05;8.07;;;2.80;69.40;;;;;;2287163;55;21193;-66
2023/12/03 10:49:12;;;;;;;13.93;7.47;;;2.80;69.50;;;;;;2520563;54;21015;-66
2023/12/03 10:51:46;;;;;;;18.10;8.63;;;2.90;70.00;;;;;;2287492;55;21004;-65
2023/12/03 10:54:16;;;;;;;15.77;8.07;;;2.90;70.20;;;;;;2287455;55;21035;-66
2023/12/03 10:56:43;;;;;;;22.77;8.63;;;3.00;70.60;;;;;;2520933;54;20948;-66
2023/12/03 10:59:11;;;;;;;22.50;8.93;;;3.10;70.80;;;;;;2517026;54;21071;-66
2023/12/03 11:01:41;;;;;;;21.23;9.02;;;3.20;70.90;;;;;;2286817;55;20979;-66
2023/12/03 11:04:34;;;;;;;19.17;8.65;;;3.30;71.20;;;;;;2287796;55;21228;-65
2023/12/03 11:07:01;;;;;;;;;;;3.40;71.30;;;;;;2291060;55;21667;-65
2023/12/03 11:09:29;;;;;;;12.70;6.45;;;3.50;70.60;;;;;;2520569;54;20172;-67
2023/12/03 11:11:59;;;;;;;13.00;7.07;;;3.60;71.40;;;;;;2516778;54;21797;-68
2023/12/03 11:14:26;;;;;;;14.32;7.70;;;3.70;72.20;;;;;;2288027;55;20971;-65
2023/12/03 11:20:26;;;;;;;12.68;6.40;;;3.70;71.30;;;;;;2287970;55;21045;-66
2023/12/03 11:23:32;;;;;;;66.15;20.42;;;3.90;70.20;;;;;;2265460;56;21588;-67
2023/12/03 11:26:13;;;;;;;25.95;12.00;;;4.00;70.70;;;;;;2288266;54;21660;-69
2023/12/03 11:28:55;;;;;;;17.25;9.52;;;4.10;70.80;;;;;;2521886;54;21468;-69
2023/12/03 11:31:23;;;;;;;16.48;7.95;;;4.10;70.70;;;;;;2521388;54;21090;-69
2023/12/03 11:33:51;;;;;;;15.73;7.25;;;4.10;70.80;;;;;;2517822;54;21396;-69
2023/12/03 11:36:18;;;;;;;12.45;6.65;;;4.20;70.90;;;;;;2287817;55;20956;-66
2023/12/03 11:38:46;;;;;;;11.48;6.40;;;4.20;70.80;;;;;;2288169;55;21552;-68
2023/12/03 11:41:35;;;;;;;10.93;5.82;;;4.30;70.60;;;;;;2520333;54;20990;-68
2023/12/03 11:44:20;;;;;;;10.32;5.65;;;4.30;70.10;;;;;;2286528;55;21008;-68
2023/12/03 11:46:50;;;;;;;14.57;7.85;;;4.40;70.20;;;;;;2287435;55;20991;-66
2023/12/03 11:49:19;;;;;;;12.52;6.87;;;4.40;70.30;;;;;;2520863;54;20971;-65
2023/12/03 11:51:49;;;;;;;11.90;6.50;;;4.40;70.10;;;;;;2287835;55;21003;-67
2023/12/03 11:54:21;;;;;;;14.20;7.00;;;4.50;70.20;;;;;;2287774;54;20963;-69
2023/12/03 11:56:47;;;;;;;10.55;5.90;;;4.50;70.10;;;;;;2521080;54;21753;-68
2023/12/03 11:59:14;;;;;;;10.20;5.80;;;4.50;70.00;;;;;;2521705;54;21015;-67
2023/12/03 12:01:40;;;;;;;8.48;4.97;;;4.50;69.90;;;;;;2286824;55;20955;-67
2023/12/03 12:04:07;;;;;;;9.70;5.07;;;4.60;70.00;;;;;;2520638;54;21473;-68
2023/12/03 12:06:34;;;;;;;14.63;5.80;;;4.60;70.00;;;;;;2521392;54;20947;-68
2023/12/03 12:09:10;;;;;;;10.73;5.70;;;4.60;69.90;;;;;;2522297;54;20966;-67
2023/12/03 12:11:36;;;;;;;8.60;5.37;;;4.80;69.90;;;;;;2521523;54;20975;-66
2023/12/03 12:14:03;;;;;;;11.98;5.97;;;4.70;69.80;;;;;;2287839;55;21030;-66
2023/12/03 12:16:30;;;;;;;10.55;5.97;;;4.70;69.70;;;;;;2520040;54;20963;-66
2023/12/03 12:18:57;;;;;;;10.45;5.47;;;4.70;69.60;;;;;;2521025;54;20995;-66
2023/12/03 12:21:23;;;;;;;9.07;5.30;;;4.80;69.50;;;;;;2286608;55;21244;-67
2023/12/03 12:23:50;;;;;;;11.07;5.80;;;4.80;69.50;;;;;;2521001;54;21634;-66
2023/12/03 12:26:17;;;;;;;9.45;5.43;;;4.80;69.60;;;;;;2285489;55;20982;-67
2023/12/03 12:28:44;;;;;;;12.65;6.40;;;4.80;69.40;;;;;;2287388;55;20972;-67
2023/12/03 12:31:11;;;;;;;11.70;6.53;;;4.80;69.40;;;;;;2287437;55;20999;-66
2023/12/03 12:33:38;;;;;;;12.55;6.97;;;4.80;69.40;;;;;;2521003;54;21500;-66
2023/12/03 12:39:35;;;;;;;10.65;6.00;;;4.90;68.80;;;;;;2520881;54;20995;-66
2023/12/03 12:42:04;;;;;;;11.40;5.97;;;4.90;69.20;;;;;;2287657;55;21035;-66
2023/12/03 12:44:44;;;;;;;11.38;5.97;;;4.90;69.70;;;;;;2287360;55;20979;-67
2023/12/03 12:47:11;;;;;;;10.40;6.30;;;4.90;68.90;;;;;;2521075;54;21033;-67
2023/12/03 12:49:42;;;;;;;12.73;7.12;;;4.90;69.30;;;;;;2283841;55;21026;-67
2023/12/03 12:52:15;;;;;;;16.30;8.07;;;4.90;69.20;;;;;;2287792;55;21370;-67
2023/12/03 12:55:00;;;;;;;14.02;7.32;;;4.90;69.20;;;;;;2520626;54;21622;-66
2023/12/03 12:57:27;;;;;;;12.15;6.18;;;5.00;68.80;;;;;;2284949;55;21146;-67
2023/12/03 12:59:53;;;;;;;10.50;6.00;;;5.00;69.20;;;;;;2290725;55;20995;-66
2023/12/03 13:02:22;;;;;;;11.35;6.78;;;5.00;69.30;;;;;;2518803;54;21020;-66